Time;durP1;ratioP1;P1;durP2;ratioP2;P2;SDS_P1;SDS_P2;PMS_P1;PMS_P2;Temp;Humidity;BMP_temperature;BMP_pressure;BME280_temperature;BME280_humidity;BME280_pressure;Samples;Min_cycle;Max_cycle;Signal;HPM_P1;HPM_P2
2023/09/25 00:00:52;;;;;;;3.65;1.48;;;;;;;22.98;59.31;100775.72;5113791;28;20043;-67
2023/09/25 00:03:21;;;;;;;3.05;1.38;;;;;;;22.96;59.36;100764.13;5113775;28;20051;-66
2023/09/25 00:05:50;;;;;;;3.03;1.50;;;;;;;22.96;59.21;100759.53;5113585;28;20487;-66
2023/09/25 00:08:21;;;;;;;2.90;1.60;;;;;;;22.93;59.19;100745.41;5113836;28;20048;-66
2023/09/25 00:10:50;;;;;;;3.88;1.23;;;;;;;22.96;59.22;100750.53;5113647;28;20495;-66
2023/09/25 00:13:20;;;;;;;3.38;1.40;;;;;;;22.95;59.23;100755.13;5113484;28;20564;-64
2023/09/25 00:15:48;;;;;;;3.92;1.40;;;;;;;22.93;59.18;100748.13;5113493;28;20138;-66
2023/09/25 00:18:17;;;;;;;2.58;1.30;;;;;;;22.94;59.26;100745.25;5113229;28;20480;-66
2023/09/25 00:20:46;;;;;;;3.35;1.60;;;;;;;22.93;59.18;100740.81;5113695;28;20078;-66
2023/09/25 00:23:14;;;;;;;3.35;1.50;;;;;;;22.92;59.11;100733.69;5113367;28;20067;-66
2023/09/25 00:25:42;;;;;;;3.63;1.80;;;;;;;22.91;58.99;100726.53;5112773;28;20058;-66
2023/09/25 00:28:11;;;;;;;3.33;1.50;;;;;;;22.92;59.08;100728.25;5113287;28;20048;-66
2023/09/25 00:30:40;;;;;;;1.67;1.15;;;;;;;22.93;59.11;100723.66;5113192;28;20075;-66
2023/09/25 00:33:09;;;;;;;3.17;1.42;;;;;;;22.92;59.06;100727.41;5113425;28;20044;-66
2023/09/25 00:35:41;;;;;;;3.13;1.50;;;;;;;22.83;59.35;100712.84;5112952;28;20052;-66
2023/09/25 00:38:10;;;;;;;2.67;1.15;;;;;;;22.92;59.07;100727.41;5113074;28;20156;-65
2023/09/25 00:40:38;;;;;;;3.38;1.20;;;;;;;22.91;58.91;100726.53;5113031;28;20123;-66
2023/09/25 00:43:06;;;;;;;3.65;1.58;;;;;;;22.90;58.95;100711.25;5113012;28;20097;-66
2023/09/25 00:45:37;;;;;;;2.85;1.38;;;;;;;22.89;58.90;100720.41;5112817;28;20059;-66
2023/09/25 00:48:08;;;;;;;3.35;1.50;;;;;;;22.91;59.10;100720.25;5113124;28;20048;-65
2023/09/25 00:50:37;;;;;;;4.05;1.40;;;;;;;22.90;59.02;100724.00;5112998;28;20054;-66
2023/09/25 00:53:09;;;;;;;2.83;1.30;;;;;;;22.90;58.98;100727.56;5112842;28;20495;-66
2023/09/25 00:55:37;;;;;;;2.45;1.15;;;;;;;22.90;59.07;100732.16;5112786;28;20123;-66
2023/09/25 00:58:07;;;;;;;3.30;1.40;;;;;;;22.88;58.81;100731.47;5112654;28;20058;-66
2023/09/25 01:00:36;;;;;;;3.33;1.40;;;;;;;22.89;58.90;100744.03;5094476;28;20143;-66
2023/09/25 01:03:05;;;;;;;2.25;1.20;;;;;;;22.88;59.00;100745.91;5112750;28;20080;-65
2023/09/25 01:05:38;;;;;;;4.32;1.40;;;;;;;22.85;58.96;100744.34;5094724;28;20086;-65
2023/09/25 01:08:08;;;;;;;4.03;1.50;;;;;;;22.89;58.90;100761.22;5112165;28;20070;-65
2023/09/25 01:10:41;;;;;;;4.65;1.40;;;;;;;22.88;58.88;100774.97;5112553;28;20052;-66
2023/09/25 01:13:11;;;;;;;2.65;1.30;;;;;;;22.88;58.95;100769.53;5112448;28;20138;-66
2023/09/25 01:15:40;;;;;;;2.67;1.40;;;;;;;22.87;58.85;100770.53;5112590;28;20054;-66
2023/09/25 01:18:08;;;;;;;3.58;1.50;;;;;;;22.87;58.90;100774.09;5112574;28;20047;-66
2023/09/25 01:20:40;;;;;;;3.63;1.20;;;;;;;22.87;58.92;100773.25;5112419;28;20050;-66
2023/09/25 01:23:10;;;;;;;3.35;1.50;;;;;;;22.86;58.90;100777.81;5112635;28;20051;-66
2023/09/25 01:25:38;;;;;;;3.80;1.60;;;;;;;22.85;58.82;100774.25;5112448;28;20058;-66
2023/09/25 01:28:06;;;;;;;3.83;1.30;;;;;;;22.85;58.77;100776.13;5112453;28;20059;-66
2023/09/25 01:30:35;;;;;;;3.08;1.52;;;;;;;22.83;58.85;100770.81;5112266;28;20446;-65
2023/09/25 01:33:04;;;;;;;2.65;1.30;;;;;;;22.84;58.75;100780.72;5112061;28;20511;-66
2023/09/25 01:35:32;;;;;;;1.67;1.10;;;;;;;22.85;58.73;100781.56;5111778;28;20051;-65
2023/09/25 01:38:03;;;;;;;2.47;1.13;;;;;;;22.84;58.72;100780.72;5111944;28;20131;-66
2023/09/25 01:40:33;;;;;;;1.70;1.05;;;;;;;22.84;58.70;100767.13;5111976;28;20496;-66
2023/09/25 01:43:02;;;;;;;3.38;1.30;;;;;;;22.84;58.70;100758.97;5112206;28;20134;-65
2023/09/25 01:45:31;;;;;;;3.78;1.55;;;;;;;22.84;58.79;100760.81;5112001;28;20085;-65
2023/09/25 01:47:59;;;;;;;2.25;1.10;;;;;;;22.83;58.58;100757.22;5111902;28;20497;-66
2023/09/25 01:50:29;;;;;;;3.15;1.15;;;;;;;22.82;58.62;100743.78;5112248;28;20066;-66
2023/09/25 01:52:59;;;;;;;2.08;1.10;;;;;;;22.83;58.69;100745.50;5112164;28;20100;-66
2023/09/25 01:55:30;;;;;;;3.85;1.40;;;;;;;22.81;58.66;100737.50;5111866;28;20507;-66
2023/09/25 01:58:03;;;;;;;2.35;1.10;;;;;;;22.80;58.85;100730.34;5112010;28;20055;-66
2023/09/25 02:00:31;;;;;;;2.35;1.23;;;;;;;22.81;58.65;100737.50;5111942;28;20058;-66
2023/09/25 02:03:00;;;;;;;2.53;1.20;;;;;;;22.82;58.69;100738.34;5111844;28;20052;-66
2023/09/25 02:05:28;;;;;;;2.28;1.30;;;;;;;22.81;58.45;100728.47;5111992;28;20137;-66
2023/09/25 02:07:57;;;;;;;4.65;1.40;;;;;;;22.80;58.58;100730.34;5112019;28;20048;-65
2023/09/25 02:10:25;;;;;;;2.30;1.20;;;;;;;22.80;58.60;100724.06;5111905;28;20055;-66
2023/09/25 02:12:54;;;;;;;3.38;1.27;;;;;;;22.78;58.61;100718.78;5111716;28;20091;-66
2023/09/25 02:15:24;;;;;;;2.90;1.35;;;;;;;22.79;58.58;100717.78;5111707;28;20052;-66
2023/09/25 02:17:52;;;;;;;3.30;1.27;;;;;;;22.78;58.58;100710.63;5112146;28;20050;-66
2023/09/25 02:20:21;;;;;;;2.72;1.20;;;;;;;22.79;58.46;100701.47;5111870;28;20074;-66
2023/09/25 02:22:51;;;;;;;2.92;1.20;;;;;;;22.77;58.71;100687.13;5111923;28;20173;-66
2023/09/25 02:25:20;;;;;;;2.60;1.35;;;;;;;22.79;58.44;100685.13;5111463;28;20510;-66
2023/09/25 02:27:48;;;;;;;2.85;1.17;;;;;;;22.78;58.39;100667.13;5111671;28;20054;-65
2023/09/25 02:30:16;;;;;;;2.67;1.20;;;;;;;22.77;58.59;100656.38;5111897;28;20047;-66
2023/09/25 02:32:46;;;;;;;3.03;1.35;;;;;;;22.77;58.60;100664.53;5111762;28;20047;-66
2023/09/25 02:35:15;;;;;;;2.58;1.20;;;;;;;22.77;58.60;100673.53;5111688;28;20040;-66
2023/09/25 02:37:44;;;;;;;2.08;1.08;;;;;;;22.76;58.42;100674.56;5111675;28;20036;-66
2023/09/25 02:40:14;;;;;;;2.42;1.23;;;;;;;22.77;58.45;100667.25;5111482;28;20054;-66
2023/09/25 02:42:44;;;;;;;2.83;1.30;;;;;;;22.76;58.49;100674.56;5111699;28;20124;-66
2023/09/25 02:45:14;;;;;;;3.42;1.30;;;;;;;22.76;58.41;100688.16;5111487;28;20040;-66
2023/09/25 02:47:43;;;;;;;3.30;1.10;;;;;;;22.76;58.65;100684.59;5112529;28;20126;-66
2023/09/25 02:50:13;;;;;;;3.40;1.33;;;;;;;22.75;58.41;100672.84;5115321;28;20048;-66
2023/09/25 02:52:43;;;;;;;2.20;1.02;;;;;;;22.75;58.42;100677.44;5115138;28;20428;-66
2023/09/25 02:55:13;;;;;;;2.88;1.13;;;;;;;22.75;58.28;100680.16;5115161;28;20468;-66
2023/09/25 02:57:42;;;;;;;3.13;0.90;;;;;;;22.74;58.42;100682.03;5115178;28;20054;-66
2023/09/25 03:00:12;;;;;;;2.38;1.15;;;;;;;22.73;58.35;100683.03;5115081;28;20047;-65
2023/09/25 03:02:41;;;;;;;2.25;1.30;;;;;;;22.74;58.29;100681.19;5115012;28;20043;-65
2023/09/25 03:05:11;;;;;;;3.50;1.20;;;;;;;22.72;58.58;100689.50;5114980;28;20048;-65
2023/09/25 03:07:41;;;;;;;2.42;1.20;;;;;;;22.73;58.31;100680.34;5114940;28;20067;-65
2023/09/25 03:10:10;;;;;;;2.88;1.10;;;;;;;22.73;58.15;100702.09;5115016;28;20412;-65
2023/09/25 03:12:40;;;;;;;2.58;1.13;;;;;;;22.71;58.30;100704.13;5114770;28;20063;-65
2023/09/25 03:15:09;;;;;;;2.22;0.95;;;;;;;22.71;58.35;100706.84;5114770;28;20039;-65
2023/09/25 03:17:38;;;;;;;1.60;1.00;;;;;;;22.71;58.23;100700.53;5114674;28;20480;-66
2023/09/25 03:20:14;;;;;;;2.13;1.00;;;;;;;22.72;58.24;100694.09;5114519;28;20049;-66
2023/09/25 03:22:46;;;;;;;2.55;1.20;;;;;;;22.69;58.08;100692.56;5114457;28;20481;-66
2023/09/25 03:25:15;;;;;;;1.35;0.90;;;;;;;22.67;58.17;100694.56;5114431;28;20066;-66
2023/09/25 03:27:44;;;;;;;1.50;0.80;;;;;;;22.69;58.17;100697.13;5114306;28;20052;-66
2023/09/25 03:30:14;;;;;;;1.85;1.02;;;;;;;22.70;58.25;100701.56;5114438;28;20052;-65
2023/09/25 03:32:45;;;;;;;2.15;0.93;;;;;;;22.67;58.16;100705.44;5114192;28;20071;-65
2023/09/25 03:35:14;;;;;;;2.35;1.10;;;;;;;22.67;58.17;100716.31;5114237;28;20484;-65
2023/09/25 03:37:42;;;;;;;1.92;1.00;;;;;;;22.66;58.29;100724.63;5114438;28;20048;-66
2023/09/25 03:40:13;;;;;;;1.73;1.08;;;;;;;22.66;58.12;100733.63;5114382;28;20079;-66
2023/09/25 03:42:41;;;;;;;1.33;0.90;;;;;;;22.66;58.05;100743.66;5114253;28;20122;-66
2023/09/25 03:45:10;;;;;;;2.72;1.10;;;;;;;22.66;58.19;100752.66;5114014;28;20052;-66
2023/09/25 03:47:39;;;;;;;2.05;1.10;;;;;;;22.65;58.06;100756.41;5114254;28;20058;-66
2023/09/25 03:50:10;;;;;;;2.67;1.20;;;;;;;22.66;58.12;100770.84;5114260;28;20044;-66
2023/09/25 03:52:39;;;;;;;2.25;1.15;;;;;;;22.65;58.01;100772.72;5114137;28;20138;-66
2023/09/25 03:55:08;;;;;;;1.58;0.88;;;;;;;22.64;58.12;100779.16;5114096;28;20048;-66
2023/09/25 03:57:38;;;;;;;2.05;0.98;;;;;;;22.64;57.98;100783.75;5113825;28;20048;-66
2023/09/25 04:00:08;;;;;;;2.20;1.10;;;;;;;22.64;58.14;100795.47;5113298;28;20051;-68
2023/09/25 04:02:36;;;;;;;2.05;1.13;;;;;;;22.63;58.13;100792.91;5114016;28;20048;-66
2023/09/25 04:05:05;;;;;;;1.83;0.80;;;;;;;22.62;57.97;100789.34;5113817;28;20043;-66
2023/09/25 04:07:34;;;;;;;1.55;0.80;;;;;;;22.62;58.00;100792.06;5113703;28;20082;-66
2023/09/25 04:10:03;;;;;;;1.70;1.08;;;;;;;22.62;57.73;100802.94;5113560;28;20043;-66
2023/09/25 04:12:31;;;;;;;1.42;1.02;;;;;;;22.62;57.82;100797.50;5113437;28;20055;-66
2023/09/25 04:15:01;;;;;;;2.03;1.05;;;;;;;22.62;58.10;100810.25;5113486;28;20555;-66
2023/09/25 04:17:33;;;;;;;3.08;1.15;;;;;;;22.59;58.00;100803.28;5113628;28;20208;-66
2023/09/25 04:20:08;;;;;;;1.55;0.95;;;;;;;22.60;58.01;100807.69;5113496;28;20043;-66
2023/09/25 04:22:37;;;;;;;2.13;1.00;;;;;;;22.61;58.03;100803.97;5113304;28;20052;-66
2023/09/25 04:25:08;;;;;;;2.20;1.10;;;;;;;22.60;58.04;100804.13;5113587;28;20048;-66
2023/09/25 04:27:40;;;;;;;2.45;1.00;;;;;;;22.61;57.89;100817.56;5113395;28;20381;-66
2023/09/25 04:30:14;;;;;;;2.55;1.30;;;;;;;22.61;57.87;100820.28;5113248;28;20476;-66
2023/09/25 04:32:43;;;;;;;1.80;0.85;;;;;;;22.59;58.03;100819.59;5113202;28;20697;-66
2023/09/25 04:35:12;;;;;;;2.05;1.17;;;;;;;22.59;57.97;100819.59;5113050;28;20044;-65
2023/09/25 04:37:41;;;;;;;2.22;1.10;;;;;;;22.59;57.69;100830.47;5113548;28;20466;-66
2023/09/25 04:40:15;;;;;;;1.85;1.00;;;;;;;22.56;57.85;100820.72;5113050;28;20488;-66
2023/09/25 04:42:43;;;;;;;1.10;0.82;;;;;;;22.59;57.83;100822.31;5112991;28;20055;-65
2023/09/25 04:45:13;;;;;;;2.42;1.30;;;;;;;22.57;57.88;100827.00;5112844;28;20479;-66
2023/09/25 04:47:42;;;;;;;2.63;1.00;;;;;;;22.55;57.84;100824.47;5112665;28;20131;-66
2023/09/25 04:50:11;;;;;;;2.20;1.10;;;;;;;22.59;57.99;100832.31;5112707;28;20108;-65
2023/09/25 04:52:41;;;;;;;1.23;1.00;;;;;;;22.57;58.11;100827.00;5112894;28;20078;-66
2023/09/25 04:55:11;;;;;;;2.42;1.10;;;;;;;22.57;57.76;100821.56;5112846;28;20047;-66
2023/09/25 04:57:40;;;;;;;2.53;1.10;;;;;;;22.57;57.82;100835.16;5112579;28;20567;-66
2023/09/25 05:00:14;;;;;;;1.95;1.05;;;;;;;22.57;57.94;100827.88;5112528;28;20092;-66
2023/09/25 05:02:44;;;;;;;3.05;1.20;;;;;;;22.54;57.87;100817.31;5112577;28;20043;-66
2023/09/25 05:05:13;;;;;;;1.23;0.90;;;;;;;22.56;58.11;100825.31;5112622;28;20109;-65
2023/09/25 05:07:43;;;;;;;2.88;1.10;;;;;;;22.56;58.05;100825.31;5112692;28;20143;-66
2023/09/25 05:10:13;;;;;;;3.20;1.08;;;;;;;22.56;57.94;100828.88;5112513;28;20130;-65
2023/09/25 05:12:42;;;;;;;2.55;1.20;;;;;;;22.55;57.88;100831.75;5112113;28;20055;-65
2023/09/25 05:15:15;;;;;;;2.78;1.10;;;;;;;22.56;57.90;100836.19;5112255;28;20519;-65
2023/09/25 05:17:46;;;;;;;2.10;0.90;;;;;;;22.53;57.80;100836.50;5112466;28;20079;-65
2023/09/25 05:20:18;;;;;;;2.47;0.98;;;;;;;22.55;57.77;100840.78;5112247;28;20065;-65
2023/09/25 05:22:48;;;;;;;1.83;0.90;;;;;;;22.56;57.79;100841.63;5112320;28;20085;-65
2023/09/25 05:25:17;;;;;;;1.45;0.80;;;;;;;22.55;57.77;100839.91;5111996;28;20400;-65
2023/09/25 05:27:47;;;;;;;1.52;0.90;;;;;;;22.54;57.87;100844.50;5112350;28;20058;-66
2023/09/25 05:30:17;;;;;;;1.52;0.95;;;;;;;22.55;57.79;100846.19;5112180;28;20048;-65
2023/09/25 05:32:49;;;;;;;4.32;1.25;;;;;;;22.55;57.77;100839.91;5111918;28;20426;-65
2023/09/25 05:35:19;;;;;;;2.75;0.95;;;;;;;22.55;57.70;100839.91;5111793;28;20131;-66
2023/09/25 05:37:48;;;;;;;1.63;0.80;;;;;;;22.55;57.91;100845.34;5111840;28;20069;-66
2023/09/25 05:40:18;;;;;;;2.28;1.25;;;;;;;22.54;58.01;100844.50;5111832;28;20055;-65
2023/09/25 05:42:48;;;;;;;1.63;0.90;;;;;;;22.55;57.80;100846.19;5112016;28;20044;-66
2023/09/25 05:45:20;;;;;;;2.65;1.20;;;;;;;22.55;57.75;100845.34;5111974;28;20047;-66
2023/09/25 05:47:50;;;;;;;2.33;1.00;;;;;;;22.54;57.99;100839.06;5111725;28;20044;-67
2023/09/25 05:50:19;;;;;;;1.77;0.88;;;;;;;22.55;58.07;100848.06;5111929;28;20048;-66
2023/09/25 05:52:47;;;;;;;2.05;1.10;;;;;;;22.56;58.06;100863.38;5093879;28;20141;-66
2023/09/25 05:55:15;;;;;;;2.30;1.10;;;;;;;22.54;58.16;100860.81;5111931;28;20386;-66
2023/09/25 05:57:45;;;;;;;2.90;1.02;;;;;;;22.55;58.59;100875.25;5112062;28;20078;-66
2023/09/25 06:00:15;;;;;;;3.30;1.52;;;;;;;22.56;58.57;100879.69;5111968;28;20039;-66
2023/09/25 06:02:44;;;;;;;1.48;0.95;;;;;;;22.55;58.80;100888.84;5111766;28;20821;-66
2023/09/25 06:05:15;;;;;;;2.22;1.20;;;;;;;22.56;59.03;100896.84;5111444;28;20054;-66
2023/09/25 06:07:44;;;;;;;2.70;1.20;;;;;;;22.56;58.90;100898.72;5110714;28;20051;-66
2023/09/25 06:10:13;;;;;;;4.00;1.20;;;;;;;22.56;58.98;100896.00;5111797;28;20528;-66
2023/09/25 06:12:42;;;;;;;1.95;1.08;;;;;;;22.57;58.91;100897.69;5111734;28;20055;-66
2023/09/25 06:15:11;;;;;;;3.42;1.40;;;;;;;22.58;58.93;100904.84;5111681;28;20062;-66
2023/09/25 06:17:42;;;;;;;2.58;1.25;;;;;;;22.57;59.01;100897.69;5111723;28;20043;-66
2023/09/25 06:20:15;;;;;;;3.55;1.20;;;;;;;22.57;59.03;100897.69;5111960;28;20411;-66
2023/09/25 06:22:47;;;;;;;1.77;0.93;;;;;;;22.59;59.02;100894.84;5112791;28;20079;-66
2023/09/25 06:25:17;;;;;;;4.78;1.67;;;;;;;22.58;59.18;100888.53;5115475;28;20056;-67
2023/09/25 06:27:47;;;;;;;3.60;1.30;;;;;;;22.59;58.98;100887.56;5115431;28;20048;-66
2023/09/25 06:30:19;;;;;;;3.22;1.38;;;;;;;22.59;59.12;100890.28;5115336;28;20086;-66
2023/09/25 06:32:48;;;;;;;3.65;1.30;;;;;;;22.60;59.25;100902.00;5115655;28;20060;-65
2023/09/25 06:35:17;;;;;;;3.85;1.60;;;;;;;22.59;59.16;100894.84;5115293;28;20039;-69
2023/09/25 06:37:47;;;;;;;7.65;1.67;;;;;;;22.59;59.12;100895.72;5115723;28;20081;-65
2023/09/25 06:40:17;;;;;;;3.88;1.35;;;;;;;22.60;59.23;100913.72;5115195;28;20058;-66
2023/09/25 06:42:46;;;;;;;3.30;1.67;;;;;;;22.60;59.22;100911.00;5115725;28;20135;-66
2023/09/25 06:45:15;;;;;;;3.40;1.60;;;;;;;22.61;59.39;100920.00;5115645;28;20058;-67
2023/09/25 06:47:46;;;;;;;3.67;1.60;;;;;;;22.62;59.22;100925.28;5115443;28;20439;-67
2023/09/25 06:50:16;;;;;;;3.28;1.65;;;;;;;22.63;59.28;100934.31;5115235;28;20091;-67
2023/09/25 06:52:44;;;;;;;5.05;1.50;;;;;;;22.61;59.13;100936.31;5115191;28;20044;-66
2023/09/25 06:55:14;;;;;;;3.45;1.40;;;;;;;22.64;59.35;100938.72;5115055;28;20162;-70
2023/09/25 06:57:42;;;;;;;3.20;1.52;;;;;;;22.64;59.50;100945.03;5115025;28;20492;-67
2023/09/25 07:00:13;;;;;;;8.15;1.55;;;;;;;22.64;59.47;100931.44;5115089;28;20116;-66
2023/09/25 07:02:42;;;;;;;3.60;1.40;;;;;;;22.66;59.35;100947.59;5115143;28;20483;-66
2023/09/25 07:05:11;;;;;;;6.88;1.85;;;;;;;22.66;59.39;100950.31;5114888;28;20043;-66
2023/09/25 07:07:40;;;;;;;4.93;1.65;;;;;;;22.68;59.17;100953.72;5115264;28;20083;-66
2023/09/25 07:10:10;;;;;;;6.65;1.70;;;;;;;22.66;59.48;100956.59;5113640;28;20053;-67
2023/09/25 07:12:40;;;;;;;7.70;1.42;;;;;;;22.70;59.18;100955.28;5113626;28;20457;-67
2023/09/25 07:15:09;;;;;;;3.80;1.40;;;;;;;22.68;59.12;100949.16;5113892;28;20087;-66
2023/09/25 07:17:38;;;;;;;2.88;1.52;;;;;;;22.69;59.17;100952.75;5113910;28;20069;-66
2023/09/25 07:20:07;;;;;;;5.35;1.80;;;;;;;22.70;58.94;100949.84;5113809;28;20051;-67
2023/09/25 07:22:36;;;;;;;6.43;1.60;;;;;;;22.72;59.08;100953.28;5113420;28;20489;-66
2023/09/25 07:25:05;;;;;;;4.28;1.42;;;;;;;22.74;59.11;100955.84;5113841;28;20254;-66
2023/09/25 07:27:34;;;;;;;5.53;1.90;;;;;;;22.74;59.00;100947.66;5114497;28;20075;-66
2023/09/25 07:30:05;;;;;;;2.72;1.65;;;;;;;22.74;58.96;100943.09;5114456;28;20048;-66
2023/09/25 07:32:34;;;;;;;2.63;1.27;;;;;;;22.76;59.00;100946.50;5114280;28;20044;-66
2023/09/25 07:35:06;;;;;;;4.00;1.60;;;;;;;22.76;58.91;100946.50;5113056;28;20047;-67
2023/09/25 07:37:35;;;;;;;4.18;1.60;;;;;;;22.77;59.06;100961.81;5114745;28;20144;-66
2023/09/25 07:40:07;;;;;;;2.78;1.35;;;;;;;22.78;58.75;100959.97;5114378;28;20047;-66
2023/09/25 07:42:36;;;;;;;4.53;1.52;;;;;;;22.77;58.83;100964.53;5114235;28;20116;-66
2023/09/25 07:45:11;;;;;;;5.70;1.65;;;;;;;22.78;58.86;100955.38;5114185;28;20043;-66
2023/09/25 07:47:42;;;;;;;3.80;1.35;;;;;;;22.80;58.95;100955.22;5113868;28;20055;-66
2023/09/25 07:50:11;;;;;;;3.83;1.42;;;;;;;22.81;58.79;100965.94;5113880;28;20048;-66
2023/09/25 07:52:40;;;;;;;5.72;1.63;;;;;;;22.81;58.74;100965.94;5113996;28;20051;-66
2023/09/25 07:55:11;;;;;;;4.70;1.38;;;;;;;22.79;58.79;100962.53;5113915;28;20386;-68
2023/09/25 07:57:40;;;;;;;5.65;1.58;;;;;;;22.81;58.71;100965.94;5113905;28;20075;-68
2023/09/25 08:00:25;;;;;;;4.18;1.42;;;;;;;22.82;58.81;100966.81;5113534;28;20054;-66
2023/09/25 08:02:54;;;;;;;2.67;1.40;;;;;;;22.84;58.65;100972.97;5113791;28;20039;-68
2023/09/25 08:05:23;;;;;;;6.72;1.50;;;;;;;22.85;58.83;100982.84;5113635;28;20549;-67
2023/09/25 08:07:52;;;;;;;3.38;1.20;;;;;;;22.84;58.82;100987.41;5113761;28;20416;-66
2023/09/25 08:10:24;;;;;;;4.45;1.50;;;;;;;22.87;58.66;100997.13;5113462;28;20062;-68
2023/09/25 08:12:52;;;;;;;4.03;1.40;;;;;;;22.88;58.52;100998.00;5113263;28;20051;-66
2023/09/25 08:15:23;;;;;;;5.75;1.52;;;;;;;22.89;58.68;101000.56;5113451;28;20051;-67
2023/09/25 08:17:52;;;;;;;2.63;1.30;;;;;;;22.88;58.71;100998.88;5113565;28;20098;-66
2023/09/25 08:20:22;;;;;;;3.53;1.52;;;;;;;22.90;58.64;101002.28;5113251;28;20050;-66
2023/09/25 08:22:51;;;;;;;1.90;1.20;;;;;;;22.90;58.64;101005.00;5113141;28;20161;-66
2023/09/25 08:25:20;;;;;;;3.85;1.30;;;;;;;22.91;58.64;101003.13;5113074;28;20047;-66
2023/09/25 08:27:51;;;;;;;2.95;1.50;;;;;;;22.93;58.68;100995.66;5113340;28;20171;-66
2023/09/25 08:30:20;;;;;;;3.40;1.40;;;;;;;22.94;58.60;100989.22;5113005;28;20048;-66
2023/09/25 08:32:50;;;;;;;3.17;1.33;;;;;;;22.94;58.52;100981.91;5113056;28;20462;-67
2023/09/25 08:35:19;;;;;;;3.42;1.48;;;;;;;22.95;58.53;100985.47;5113035;28;20078;-67
2023/09/25 08:37:47;;;;;;;2.17;1.20;;;;;;;22.95;58.46;100986.34;5113003;28;20472;-66
2023/09/25 08:40:16;;;;;;;3.47;1.40;;;;;;;22.98;58.56;100999.66;5113187;28;20130;-66
2023/09/25 08:42:47;;;;;;;4.32;1.45;;;;;;;22.98;58.23;100982.47;5113112;28;20052;-67
2023/09/25 08:45:22;;;;;;;2.47;1.33;;;;;;;22.98;58.62;100986.06;5112738;28;20086;-66
2023/09/25 08:47:52;;;;;;;2.97;1.45;;;;;;;22.99;58.52;100990.47;5112752;28;20058;-66
2023/09/25 08:50:21;;;;;;;4.00;1.52;;;;;;;23.00;58.37;100985.88;5112626;28;20143;-66
2023/09/25 08:52:49;;;;;;;4.07;1.42;;;;;;;23.01;58.46;100995.75;5112599;28;20138;-67
2023/09/25 08:55:18;;;;;;;3.15;1.50;;;;;;;23.00;58.48;100991.34;5112897;28;20044;-68
2023/09/25 08:57:46;;;;;;;3.78;1.40;;;;;;;23.01;58.59;100993.91;5112577;28;20139;-66
2023/09/25 09:00:16;;;;;;;2.75;1.38;;;;;;;23.02;58.49;100992.03;5112351;28;20086;-66
2023/09/25 09:02:44;;;;;;;3.70;1.50;;;;;;;23.02;58.72;100986.59;5112930;28;20100;-66
2023/09/25 09:05:16;;;;;;;3.22;1.27;;;;;;;23.02;58.64;100995.59;5112377;28;20040;-66
2023/09/25 09:07:59;;;;;;;6.50;1.50;;;;;;;23.03;58.68;100993.72;5112595;28;20047;-66
2023/09/25 09:10:32;;;;;;;2.97;1.45;;;;;;;23.04;58.52;100995.44;5112430;28;20461;-66
2023/09/25 09:13:01;;;;;;;3.30;1.30;;;;;;;23.04;58.71;100992.72;5112305;28;20143;-66
2023/09/25 09:15:32;;;;;;;3.03;1.30;;;;;;;23.05;58.62;101002.59;5112245;28;20051;-67
2023/09/25 09:18:18;;;;;;;3.63;1.40;;;;;;;23.04;58.77;100998.16;5112424;28;20040;-67
2023/09/25 09:20:52;;;;;;;4.20;1.33;;;;;;;23.06;58.67;101001.56;5112399;28;20135;-67
2023/09/25 09:23:21;;;;;;;3.10;1.10;;;;;;;23.05;58.67;100994.44;5111878;28;20611;-67
2023/09/25 09:25:49;;;;;;;3.50;1.67;;;;;;;23.07;58.58;100996.00;5112321;28;20109;-67
2023/09/25 09:28:18;;;;;;;3.08;1.50;;;;;;;23.08;58.85;100994.13;5112481;28;20146;-67
2023/09/25 09:30:46;;;;;;;2.97;1.42;;;;;;;23.09;58.65;100998.56;5112344;28;20079;-67
2023/09/25 09:33:14;;;;;;;3.00;1.35;;;;;;;23.09;58.47;100991.25;5112201;28;20185;-67
2023/09/25 09:35:43;;;;;;;3.17;1.20;;;;;;;23.08;58.66;100991.41;5112109;28;20056;-67
2023/09/25 09:38:15;;;;;;;3.80;1.45;;;;;;;23.10;58.55;100989.38;5112122;28;20047;-67
2023/09/25 09:40:43;;;;;;;3.55;1.30;;;;;;;23.14;58.55;100982.59;5112475;28;20054;-67
2023/09/25 09:43:14;;;;;;;2.75;1.20;;;;;;;23.15;58.51;100984.31;5111787;28;20428;-67
2023/09/25 09:45:44;;;;;;;4.88;1.50;;;;;;;23.17;58.36;100981.47;5111974;28;20071;-67
2023/09/25 09:48:17;;;;;;;2.83;1.42;;;;;;;23.18;58.65;100983.19;5111970;28;20039;-67
2023/09/25 09:50:49;;;;;;;2.90;1.42;;;;;;;23.19;58.51;100990.31;5112299;28;20079;-67
2023/09/25 09:53:22;;;;;;;3.73;1.30;;;;;;;23.21;58.53;100989.16;5111792;28;20146;-67
2023/09/25 09:55:52;;;;;;;3.72;1.27;;;;;;;23.23;58.44;100981.69;5112027;28;20351;-67
2023/09/25 09:58:20;;;;;;;2.95;1.33;;;;;;;23.25;58.41;100990.53;5114389;28;20044;-67
2023/09/25 10:00:49;;;;;;;3.60;1.50;;;;;;;23.27;58.40;100993.97;5116222;28;20138;-67
2023/09/25 10:03:18;;;;;;;2.70;1.35;;;;;;;23.26;58.38;100997.72;5116175;28;20146;-67
2023/09/25 10:05:49;;;;;;;3.15;1.42;;;;;;;23.31;58.37;100995.38;5116041;28;20047;-67
2023/09/25 10:08:21;;;;;;;3.88;1.48;;;;;;;23.32;58.52;101001.66;5116083;28;20047;-67
2023/09/25 10:10:51;;;;;;;3.03;1.35;;;;;;;23.31;58.59;100995.38;5115876;28;20100;-67
2023/09/25 10:13:22;;;;;;;3.42;1.30;;;;;;;23.32;58.47;100990.78;5115680;28;20059;-67
2023/09/25 10:15:58;;;;;;;5.70;1.50;;;;;;;23.33;58.51;100992.47;5115846;28;20040;-67
2023/09/25 10:18:30;;;;;;;3.63;1.60;;;;;;;23.33;58.46;100987.03;5115996;28;20134;-67
2023/09/25 10:21:08;;;;;;;3.38;1.25;;;;;;;23.34;58.56;100989.59;5115904;28;20472;-67
2023/09/25 10:23:41;;;;;;;3.88;1.40;;;;;;;23.36;58.48;100987.59;5115815;28;20050;-67
2023/09/25 10:26:15;;;;;;;;;;;;;;;23.36;58.41;100993.03;5116057;28;20055;-67
2023/09/25 10:28:44;;;;;;;2.33;1.27;;;;;;;23.37;58.42;100988.44;5115386;28;19942;-67
2023/09/25 10:31:20;;;;;;;2.83;1.45;;;;;;;23.38;58.40;100982.84;5115557;28;20051;-67
2023/09/25 10:33:55;;;;;;;3.38;1.83;;;;;;;23.39;58.49;100990.00;5115397;28;20048;-67
2023/09/25 10:36:36;;;;;;;3.63;1.33;;;;;;;23.41;58.29;100987.97;5115968;28;20125;-68
2023/09/25 10:39:08;;;;;;;2.97;1.60;;;;;;;23.42;58.32;100981.50;5115328;28;20542;-67
2023/09/25 10:41:37;;;;;;;4.53;1.50;;;;;;;23.43;58.25;100983.22;5115565;28;20146;-67
2023/09/25 10:44:06;;;;;;;2.55;1.27;;;;;;;23.48;58.21;100980.03;5097249;28;20043;-66
2023/09/25 10:46:35;;;;;;;2.78;1.30;;;;;;;23.50;58.15;100988.03;5115285;28;20044;-67
2023/09/25 10:49:04;;;;;;;3.20;1.30;;;;;;;23.51;58.03;100984.28;5115204;28;20132;-67
2023/09/25 10:51:32;;;;;;;2.20;1.25;;;;;;;23.53;58.15;100987.72;5114984;28;20051;-67
2023/09/25 10:54:02;;;;;;;3.22;1.30;;;;;;;23.55;58.12;100989.28;5115003;28;20480;-67
2023/09/25 10:56:33;;;;;;;3.25;1.63;;;;;;;23.59;58.30;100982.53;5114972;28;20063;-67
2023/09/25 10:59:02;;;;;;;4.03;1.50;;;;;;;23.61;58.16;100976.91;5114935;28;20121;-66
2023/09/25 11:01:32;;;;;;;3.00;1.33;;;;;;;23.66;58.05;100982.75;5114937;28;20051;-66
2023/09/25 11:04:01;;;;;;;2.72;1.30;;;;;;;23.68;58.02;100975.28;5114563;28;20043;-67
2023/09/25 11:06:30;;;;;;;3.55;1.27;;;;;;;23.73;58.05;100977.50;5114790;28;20075;-66
2023/09/25 11:08:59;;;;;;;2.92;1.52;;;;;;;23.75;57.89;100970.91;5114583;28;20101;-67
2023/09/25 11:11:29;;;;;;;3.55;1.38;;;;;;;23.79;57.87;100969.56;5114849;28;20109;-66
2023/09/25 11:13:59;;;;;;;3.33;1.48;;;;;;;23.81;57.78;100963.94;5114837;28;20495;-67
2023/09/25 11:16:28;;;;;;;3.05;1.48;;;;;;;23.83;57.83;100965.47;5114931;28;20393;-66
2023/09/25 11:19:11;;;;;;;4.28;1.55;;;;;;;23.83;57.72;100957.31;5114515;28;20039;-67
2023/09/25 11:21:41;;;;;;;4.97;1.63;;;;;;;23.87;57.63;100958.72;5114792;28;20054;-67
2023/09/25 11:24:11;;;;;;;3.63;1.30;;;;;;;23.90;57.64;100958.38;5114384;28;20097;-68
2023/09/25 11:26:41;;;;;;;4.75;1.50;;;;;;;23.92;57.52;100948.16;5114494;28;20082;-67
2023/09/25 11:29:13;;;;;;;2.22;1.30;;;;;;;23.96;57.39;100952.28;5114308;28;20432;-68
2023/09/25 11:31:41;;;;;;;3.15;1.33;;;;;;;23.98;57.25;100947.53;5114162;28;20495;-67
2023/09/25 11:34:29;;;;;;;3.35;1.20;;;;;;;24.06;57.45;100948.59;5114304;28;20139;-67
2023/09/25 11:36:58;;;;;;;3.97;1.60;;;;;;;24.10;57.27;100953.53;5114191;28;20047;-67